Time;durP1;ratioP1;P1;durP2;ratioP2;P2;SDS_P1;SDS_P2;PMS_P1;PMS_P2;Temp;Humidity;BMP_temperature;BMP_pressure;BME280_temperature;BME280_humidity;BME280_pressure;Samples;Min_cycle;Max_cycle;Signal;HPM_P1;HPM_P2
2022/06/07 00:00:41;;;;;;;8.82;3.70;;;;;;;14.06;79.43;93484.50;5112085;28;20477;-37
2022/06/07 00:03:06;;;;;;;16.05;3.85;;;;;;;14.14;79.64;93487.19;5113402;28;20062;-38
2022/06/07 00:05:32;;;;;;;5.85;3.75;;;;;;;14.12;79.64;93481.50;5113288;28;20035;-37
2022/06/07 00:07:57;;;;;;;7.68;3.90;;;;;;;14.10;79.56;93478.53;5112936;28;20024;-37
2022/06/07 00:10:23;;;;;;;5.45;3.85;;;;;;;14.03;79.73;93484.91;5112736;28;20027;-37
2022/06/07 00:12:49;;;;;;;4.75;3.42;;;;;;;14.01;79.65;93476.41;5112723;28;20038;-37
2022/06/07 00:15:15;;;;;;;4.25;3.30;;;;;;;13.85;79.97;93472.31;5113217;28;20327;-38
2022/06/07 00:17:40;;;;;;;4.13;3.63;;;;;;;13.97;78.85;93476.09;5112988;28;20480;-38
2022/06/07 00:20:08;;;;;;;4.07;3.67;;;;;;;13.88;78.90;93482.28;5112727;28;20505;-37
2022/06/07 00:22:34;;;;;;;3.58;2.78;;;;;;;13.88;78.22;93482.28;5112727;28;20412;-37
2022/06/07 00:24:59;;;;;;;3.10;2.80;;;;;;;13.93;78.02;93481.28;5112598;28;20047;-37
2022/06/07 00:27:25;;;;;;;11.75;3.13;;;;;;;13.58;79.74;93486.78;5092318;28;20054;-37
2022/06/07 00:29:50;;;;;;;3.97;2.63;;;;;;;13.73;79.77;93482.41;5096388;28;20028;-38
2022/06/07 00:32:18;;;;;;;5.90;3.90;;;;;;;13.88;79.46;93482.28;5111601;28;20031;-37
2022/06/07 00:34:43;;;;;;;6.28;5.00;;;;;;;13.88;79.62;93482.28;5111314;28;20493;-37
2022/06/07 00:37:09;;;;;;;6.75;4.85;;;;;;;13.82;79.62;93479.72;5112656;28;20257;-37
2022/06/07 00:39:34;;;;;;;9.48;4.95;;;;;;;13.86;79.65;93477.28;5112321;28;20042;-37
2022/06/07 00:41:59;;;;;;;5.28;4.57;;;;;;;13.72;79.84;93475.38;5112213;27;20047;-38
2022/06/07 00:44:25;;;;;;;7.07;4.82;;;;;;;13.59;80.29;93477.16;5112571;28;20046;-37
2022/06/07 00:47:03;;;;;;;4.45;4.05;;;;;;;13.54;80.64;93466.28;5112258;28;20408;-37
2022/06/07 00:49:51;;;;;;;7.07;5.20;;;;;;;13.71;79.83;93479.47;5112429;28;20066;-37
2022/06/07 00:52:18;;;;;;;7.63;4.53;;;;;;;13.71;79.24;93477.41;5111244;28;20103;-38
2022/06/07 00:54:44;;;;;;;5.30;4.63;;;;;;;13.60;79.94;93478.63;5112049;28;20031;-37
2022/06/07 00:57:10;;;;;;;8.73;5.60;;;;;;;13.34;81.13;93479.22;5111995;28;20035;-38
2022/06/07 00:59:36;;;;;;;8.63;5.43;;;;;;;13.46;80.98;93477.47;5112297;28;20019;-38
2022/06/07 01:02:02;;;;;;;6.68;5.50;;;;;;;13.56;80.47;93474.78;5112543;28;20015;-38
2022/06/07 01:04:27;;;;;;;11.48;4.72;;;;;;;13.56;80.40;93469.97;5111928;28;20023;-37
2022/06/07 01:12:22;;;;;;;6.88;4.68;;;;;;;13.46;80.43;93468.41;5112078;28;20080;-37
2022/06/07 01:14:47;;;;;;;6.03;4.40;;;;;;;13.34;81.27;93459.09;5111963;28;20054;-38
2022/06/07 01:17:13;;;;;;;9.48;4.30;;;;;;;13.50;80.96;93452.84;5111646;28;20030;-37
2022/06/07 01:19:39;;;;;;;4.80;4.30;;;;;;;13.49;80.66;93450.63;5111425;28;20058;-37
2022/06/07 01:22:04;;;;;;;4.40;4.00;;;;;;;13.46;80.16;93454.53;5110398;28;20023;-37
2022/06/07 01:24:30;;;;;;;6.10;4.13;;;;;;;13.32;80.20;93465.19;5111053;28;20484;-37
2022/06/07 01:26:55;;;;;;;4.90;2.78;;;;;;;13.33;78.46;93471.47;5106550;27;20028;-37
2022/06/07 01:29:21;;;;;;;4.20;3.50;;;;;;;13.34;79.16;93470.88;5111634;27;20024;-37
2022/06/07 01:31:47;;;;;;;6.30;3.25;;;;;;;13.38;79.54;93471.22;5111653;28;20496;-37
2022/06/07 01:34:12;;;;;;;7.70;3.88;;;;;;;13.31;79.73;93474.06;5111277;28;20024;-37
2022/06/07 01:36:38;;;;;;;9.00;3.38;;;;;;;13.22;79.67;93472.66;5111225;28;20034;-37
2022/06/07 01:41:54;;;;;;;7.70;3.42;;;;;;;13.19;80.13;93482.09;5111126;28;20105;-38
2022/06/07 01:44:25;;;;;;;5.22;3.90;;;;;;;13.18;79.73;93482.66;5111421;27;20024;-37
2022/06/07 01:46:51;;;;;;;6.50;3.50;;;;;;;13.21;80.18;93479.50;5111344;28;20036;-37
2022/06/07 01:49:17;;;;;;;10.30;4.20;;;;;;;13.15;80.64;93484.53;5111053;28;20118;-38
2022/06/07 01:51:42;;;;;;;8.48;4.05;;;;;;;13.17;80.46;93481.19;5111298;28;20050;-38
2022/06/07 01:54:09;;;;;;;7.32;3.50;;;;;;;13.07;80.75;93472.75;5111270;28;20034;-38
2022/06/07 01:56:35;;;;;;;4.55;3.40;;;;;;;13.09;81.27;93470.16;5110975;28;20019;-37
2022/06/07 01:59:01;;;;;;;6.75;4.07;;;;;;;13.07;81.76;93461.66;5110819;28;20031;-38
2022/06/07 02:01:26;;;;;;;8.52;5.30;;;;;;;12.99;82.52;93465.75;5111106;28;20062;-37
2022/06/07 02:03:52;;;;;;;13.18;8.85;;;;;;;13.10;82.05;93466.09;5111090;28;20089;-38
2022/06/07 02:06:17;;;;;;;10.30;8.18;;;;;;;13.11;81.47;93466.81;5110822;28;20412;-38
2022/06/07 02:08:43;;;;;;;6.90;5.45;;;;;;;13.00;81.34;93473.50;5110756;28;20027;-37
2022/06/07 02:11:11;;;;;;;7.07;5.20;;;;;;;13.01;81.44;93469.44;5111072;28;20508;-38
2022/06/07 02:13:37;;;;;;;5.75;4.82;;;;;;;13.11;82.03;93483.44;5110674;28;20106;-37
2022/06/07 02:16:03;;;;;;;6.80;5.53;;;;;;;13.20;81.89;93475.25;5110681;28;20019;-38
2022/06/07 02:18:29;;;;;;;5.90;5.30;;;;;;;13.33;81.49;93463.88;5110834;28;20070;-38
2022/06/07 02:20:57;;;;;;;8.02;4.68;;;;;;;13.29;81.36;93473.91;5110700;28;20131;-38
2022/06/07 02:23:27;;;;;;;8.45;4.00;;;;;;;13.21;80.58;93473.22;5097463;28;20035;-37
2022/06/07 02:25:54;;;;;;;10.23;4.53;;;;;;;13.21;80.74;93476.00;5096120;28;20035;-38
2022/06/07 02:28:23;;;;;;;6.65;4.70;;;;;;;13.23;80.26;93473.41;5110869;28;20023;-38
2022/06/07 02:30:48;;;;;;;7.17;4.40;;;;;;;13.36;80.35;93487.69;5109635;28;20023;-38
2022/06/07 02:33:14;;;;;;;6.43;4.88;;;;;;;13.24;80.49;93489.47;5110519;28;20421;-37
2022/06/07 02:35:41;;;;;;;11.38;5.40;;;;;;;13.32;80.56;93481.09;5113045;28;20027;-38
2022/06/07 02:38:07;;;;;;;4.82;4.32;;;;;;;13.30;80.35;93481.66;5113762;28;20465;-38
2022/06/07 02:40:33;;;;;;;11.10;4.45;;;;;;;13.38;81.29;93487.88;5114490;28;20082;-37
2022/06/07 02:42:58;;;;;;;7.70;4.43;;;;;;;13.40;80.74;93493.59;5114643;28;20065;-38
2022/06/07 02:45:24;;;;;;;7.47;4.75;;;;;;;13.27;80.80;93490.38;5114850;28;20039;-38
2022/06/07 02:47:50;;;;;;;9.77;5.25;;;;;;;13.31;80.65;93499.03;5113385;28;20465;-38
2022/06/07 02:50:15;;;;;;;5.68;3.92;;;;;;;13.43;79.98;93489.69;5114812;28;20031;-38
2022/06/07 02:52:41;;;;;;;14.02;7.68;;;;;;;13.38;80.86;93498.25;5114730;28;20027;-39
2022/06/07 02:55:07;;;;;;;14.10;9.80;;;;;;;13.43;82.18;93498.00;5114455;28;20416;-38
2022/06/07 02:57:32;;;;;;;9.65;7.07;;;;;;;13.48;82.08;93493.53;5114573;28;20074;-38
2022/06/07 02:59:58;;;;;;;12.38;9.38;;;;;;;13.44;81.34;93493.94;5114346;28;20547;-38
2022/06/07 03:02:23;;;;;;;14.65;8.57;;;;;;;13.46;80.77;93496.13;5114226;28;20027;-38
2022/06/07 03:04:49;;;;;;;14.20;8.85;;;;;;;13.52;81.46;93497.38;5114532;28;20023;-37
2022/06/07 03:07:14;;;;;;;17.60;9.02;;;;;;;13.49;81.43;93509.59;5114246;28;20073;-38
2022/06/07 03:09:40;;;;;;;14.23;7.70;;;;;;;13.55;81.20;93504.59;5114425;28;20016;-38
2022/06/07 03:12:05;;;;;;;10.77;7.25;;;;;;;13.51;81.14;93489.63;5114422;28;20476;-38
2022/06/07 03:14:31;;;;;;;7.88;4.90;;;;;;;13.59;81.62;93499.38;5114220;28;20468;-38
2022/06/07 03:16:57;;;;;;;3.70;3.40;;;;;;;13.67;81.47;93499.28;5114093;28;20420;-38
2022/06/07 03:19:23;;;;;;;4.70;4.22;;;;;;;13.81;80.00;93494.94;5113883;28;20046;-38
2022/06/07 03:21:48;;;;;;;4.90;4.18;;;;;;;13.78;80.31;93504.38;5113909;28;20489;-38
2022/06/07 03:24:13;;;;;;;5.90;4.85;;;;;;;13.69;80.60;93510.56;5114122;28;20019;-38
2022/06/07 03:26:39;;;;;;;7.93;5.53;;;;;;;13.71;80.30;93521.81;5108874;28;20019;-38
2022/06/07 03:29:04;;;;;;;13.98;5.75;;;;;;;13.64;81.38;93503.94;5113758;28;20024;-38
2022/06/07 03:31:30;;;;;;;8.80;5.88;;;;;;;13.77;82.06;93510.50;5113636;28;20027;-38
2022/06/07 03:33:56;;;;;;;9.10;6.07;;;;;;;13.76;81.58;93503.47;5113991;28;20088;-37
2022/06/07 03:36:25;;;;;;;8.90;6.07;;;;;;;13.80;81.97;93506.56;5113941;28;20465;-38
2022/06/07 03:38:51;;;;;;;8.38;5.90;;;;;;;13.87;81.86;93511.31;5113444;28;20038;-38
2022/06/07 03:41:23;;;;;;;10.60;6.15;;;;;;;13.96;82.13;93505.13;5113366;28;20054;-37
2022/06/07 03:43:48;;;;;;;5.57;4.43;;;;;;;13.98;82.61;93503.28;5113827;28;20031;-38
2022/06/07 03:46:19;;;;;;;14.85;5.78;;;;;;;14.11;82.91;93502.22;5113150;28;20484;-38
2022/06/07 03:48:45;;;;;;;6.90;5.65;;;;;;;14.20;83.30;93510.66;5113524;28;20023;-38
2022/06/07 03:51:12;;;;;;;9.25;6.13;;;;;;;14.19;83.33;93500.84;5113786;28;20027;-38
2022/06/07 03:53:38;;;;;;;11.95;5.55;;;;;;;14.36;82.73;93511.22;5113458;28;20095;-38
2022/06/07 03:56:04;;;;;;;5.88;5.28;;;;;;;14.27;82.14;93512.59;5113230;28;20119;-38
2022/06/07 03:58:30;;;;;;;8.25;5.22;;;;;;;14.25;81.70;93500.59;5113148;28;20032;-38
2022/06/07 04:00:57;;;;;;;6.13;4.63;;;;;;;14.33;81.11;93513.13;5113431;28;20388;-38
2022/06/07 04:03:23;;;;;;;7.30;4.22;;;;;;;14.37;81.59;93507.16;5112787;28;20412;-39
2022/06/07 04:05:49;;;;;;;6.13;4.50;;;;;;;14.55;81.48;93502.31;5113056;28;20023;-38
2022/06/07 04:08:14;;;;;;;6.47;5.07;;;;;;;14.58;81.70;93507.47;5113079;27;20023;-38
2022/06/07 04:10:56;;;;;;;5.07;4.53;;;;;;;14.67;82.05;93508.84;5113231;28;20023;-39
2022/06/07 04:13:24;;;;;;;8.43;4.07;;;;;;;14.73;81.73;93506.53;5112890;28;20031;-38
2022/06/07 04:15:50;;;;;;;8.57;5.10;;;;;;;14.83;81.61;93499.75;5112786;28;20028;-38
2022/06/07 04:18:16;;;;;;;7.45;4.63;;;;;;;14.93;81.38;93508.88;5112777;28;20034;-38
2022/06/07 04:20:42;;;;;;;6.70;4.47;;;;;;;15.02;81.66;93513.78;5113018;28;20476;-39
2022/06/07 04:23:12;;;;;;;12.07;5.20;;;;;;;15.09;81.82;93517.75;5113059;28;20031;-39
2022/06/07 04:25:39;;;;;;;7.40;4.95;;;;;;;15.18;81.57;93523.38;5106666;28;20405;-38
2022/06/07 04:28:05;;;;;;;7.78;6.72;;;;;;;15.28;81.78;93520.66;5112955;28;20095;-38
2022/06/07 04:30:30;;;;;;;11.40;10.27;;;;;;;15.29;82.09;93502.63;5112866;28;20106;-37
2022/06/07 04:32:56;;;;;;;31.23;23.92;;;;;;;15.59;81.64;93520.97;5112886;28;20544;-38
2022/06/07 04:35:22;;;;;;;118.32;80.40;;;;;;;15.74;81.71;93515.16;5112474;28;20088;-39
2022/06/07 04:37:48;;;;;;;138.63;92.55;;;;;;;15.80;80.26;93510.78;5112348;28;20040;-38
2022/06/07 04:40:14;;;;;;;11.90;7.15;;;;;;;15.89;78.95;93507.31;5112484;28;20086;-38
2022/06/07 04:42:41;;;;;;;9.93;4.65;;;;;;;15.86;79.30;93511.25;5112329;28;20076;-38
2022/06/07 04:45:09;;;;;;;11.77;7.65;;;;;;;15.99;79.73;93514.91;5112395;28;20030;-38
2022/06/07 04:47:36;;;;;;;18.90;9.00;;;;;;;16.08;78.78;93512.16;5112290;28;20034;-38
2022/06/07 04:50:06;;;;;;;14.48;8.90;;;;;;;16.25;78.33;93517.63;5112144;28;20492;-39
2022/06/07 04:52:31;;;;;;;10.32;8.60;;;;;;;16.35;78.44;93523.22;5112315;28;20024;-39
2022/06/07 04:54:56;;;;;;;12.20;9.75;;;;;;;16.46;78.79;93514.25;5112197;28;20499;-38
2022/06/07 04:57:22;;;;;;;13.73;11.20;;;;;;;16.56;78.70;93518.56;5111489;28;20032;-38
2022/06/07 04:59:47;;;;;;;14.02;9.65;;;;;;;16.68;78.95;93513.84;5112080;28;20024;-38
2022/06/07 05:02:13;;;;;;;14.85;9.95;;;;;;;16.79;78.64;93520.16;5111987;28;20156;-38
2022/06/07 05:04:38;;;;;;;14.13;10.18;;;;;;;16.75;78.51;93503.13;5112155;28;20038;-38
2022/06/07 05:07:04;;;;;;;10.65;9.23;;;;;;;17.00;78.24;93526.59;5111873;28;20024;-39
2022/06/07 05:09:29;;;;;;;13.75;11.18;;;;;;;17.11;77.83;93522.47;5112002;28;20020;-38
2022/06/07 05:11:55;;;;;;;30.17;19.90;;;;;;;17.24;78.12;93522.00;5111843;28;20555;-38
2022/06/07 05:14:21;;;;;;;28.95;20.45;;;;;;;17.30;77.95;93525.25;5111696;28;20116;-38
2022/06/07 05:16:48;;;;;;;23.02;20.42;;;;;;;17.25;77.46;93501.16;5111721;28;20587;-38
2022/06/07 05:19:14;;;;;;;44.08;38.72;;;;;;;17.48;78.16;93529.28;5112102;28;20089;-38
2022/06/07 05:21:40;;;;;;;25.30;21.42;;;;;;;17.52;77.52;93532.38;5111809;28;20106;-38
2022/06/07 05:24:07;;;;;;;12.43;11.15;;;;;;;17.60;78.34;93532.22;5110715;28;20110;-38
2022/06/07 05:26:41;;;;;;;10.77;8.95;;;;;;;17.53;77.35;93538.69;5106637;28;20020;-38
2022/06/07 05:29:14;;;;;;;10.27;8.60;;;;;;;17.65;76.72;93536.78;5111517;28;20023;-38
2022/06/07 05:31:39;;;;;;;10.75;9.65;;;;;;;17.68;76.66;93536.31;5110492;28;20035;-38
2022/06/07 05:34:05;;;;;;;14.23;9.98;;;;;;;17.77;77.25;93532.00;5111614;28;20457;-38
2022/06/07 05:36:30;;;;;;;12.70;10.02;;;;;;;17.84;76.96;93529.06;5111238;28;20031;-39
2022/06/07 05:38:56;;;;;;;15.25;10.55;;;;;;;18.00;76.47;93523.81;5111247;28;20027;-38
2022/06/07 05:41:24;;;;;;;12.40;9.52;;;;;;;18.12;77.16;93527.44;5111013;28;20047;-38
2022/06/07 05:43:50;;;;;;;9.38;6.38;;;;;;;18.15;76.55;93517.84;5111401;28;20074;-38
2022/06/07 05:46:16;;;;;;;14.60;8.75;;;;;;;18.42;76.11;93531.50;5111159;28;20507;-38
2022/06/07 05:48:41;;;;;;;4.88;4.38;;;;;;;18.60;70.51;93527.88;5111324;28;20024;-39
2022/06/07 05:51:07;;;;;;;8.82;4.90;;;;;;;18.64;72.20;93533.75;5111095;28;20046;-39
2022/06/07 05:53:32;;;;;;;12.27;5.28;;;;;;;18.67;72.42;93529.00;5111272;28;20041;-38
2022/06/07 05:56:05;;;;;;;6.72;4.00;;;;;;;18.76;72.07;93528.19;5110944;28;20512;-39
2022/06/07 05:58:30;;;;;;;3.33;3.03;;;;;;;18.78;68.51;93528.31;5110827;28;20023;-39
2022/06/07 06:00:56;;;;;;;4.47;2.95;;;;;;;18.68;67.78;93528.41;5110983;28;20106;-39
2022/06/07 06:16:20;;;;;;;3.90;3.15;;;;;;;19.84;64.98;93514.75;5128439;27;20613;-39
2022/06/07 06:18:47;;;;;;;3.38;3.00;;;;;;;19.91;64.30;93516.59;5128462;27;20027;-39
2022/06/07 06:21:13;;;;;;;3.38;3.08;;;;;;;19.92;64.61;93520.13;5127951;27;20027;-39
2022/06/07 06:23:39;;;;;;;2.90;2.70;;;;;;;19.85;63.95;93501.50;5107733;28;20028;-39
2022/06/07 06:26:13;;;;;;;3.13;2.83;;;;;;;19.96;63.62;93511.97;5107720;28;20027;-39
2022/06/07 06:28:39;;;;;;;5.13;2.53;;;;;;;20.08;62.59;93510.63;5108100;28;20027;-39
2022/06/07 06:31:07;;;;;;;3.90;2.60;;;;;;;20.23;62.36;93512.22;5107644;28;20024;-39
2022/06/07 06:33:37;;;;;;;3.97;3.20;;;;;;;20.39;62.60;93516.00;5107862;28;20031;-39
2022/06/07 06:36:04;;;;;;;2.78;2.58;;;;;;;20.57;61.06;93508.66;5107859;28;20028;-39
2022/06/07 06:38:30;;;;;;;3.63;2.80;;;;;;;20.52;61.21;93480.97;5107144;28;20073;-39
2022/06/07 06:40:56;;;;;;;2.90;2.70;;;;;;;20.78;60.42;93502.84;5107838;28;20054;-39
2022/06/07 06:43:22;;;;;;;5.05;3.00;;;;;;;20.99;59.40;93508.25;5107384;28;20031;-39
2022/06/07 06:45:47;;;;;;;4.55;2.85;;;;;;;21.01;59.37;93505.56;5107653;28;20518;-40
2022/06/07 06:48:14;;;;;;;13.32;2.88;;;;;;;20.96;60.10;93503.16;5107617;28;20400;-40
2022/06/07 06:50:39;;;;;;;5.20;2.50;;;;;;;21.01;60.16;93502.00;5107617;28;20085;-39
2022/06/07 06:53:05;;;;;;;2.90;2.70;;;;;;;21.03;59.36;93494.47;5107298;28;20024;-39
2022/06/07 06:55:31;;;;;;;4.45;2.83;;;;;;;21.09;60.72;93491.28;5107486;28;20015;-40
2022/06/07 06:57:56;;;;;;;3.78;2.60;;;;;;;20.95;58.96;93482.03;5107494;28;20035;-39
2022/06/07 07:00:22;;;;;;;5.78;2.65;;;;;;;21.09;60.13;93494.09;5107073;28;20031;-39
2022/06/07 07:02:48;;;;;;;3.05;2.85;;;;;;;21.28;60.53;93490.94;5107113;28;20508;-40
2022/06/07 07:05:15;;;;;;;3.25;2.95;;;;;;;21.56;58.04;93492.47;5106972;28;20051;-40
2022/06/07 07:07:41;;;;;;;3.38;3.08;;;;;;;21.93;57.99;93494.44;5106924;28;20728;-40
2022/06/07 07:10:08;;;;;;;2.83;2.63;;;;;;;22.12;56.31;93469.47;5107256;28;20027;-39
2022/06/07 07:12:34;;;;;;;25.90;18.95;;;;;;;22.55;56.73;93489.22;5106425;28;20028;-40
2022/06/07 07:14:59;;;;;;;6.53;3.80;;;;;;;22.87;55.48;93481.72;5106453;28;20043;-40
2022/06/07 07:17:25;;;;;;;5.28;2.95;;;;;;;23.23;53.67;93487.00;5091405;28;20032;-37
2022/06/07 07:19:51;;;;;;;2.80;2.40;;;;;;;23.34;53.03;93482.63;5093118;28;20032;-38
2022/06/07 07:22:17;;;;;;;2.78;2.58;;;;;;;23.56;51.39;93472.38;5093364;28;20028;-38
2022/06/07 07:24:42;;;;;;;17.35;5.22;;;;;;;24.16;51.82;93482.16;5093310;28;20402;-37
2022/06/07 07:27:08;;;;;;;4.38;2.30;;;;;;;24.79;49.72;93480.69;5093056;28;20028;-37
2022/06/07 07:29:34;;;;;;;16.35;8.75;;;;;;;25.45;48.04;93480.59;5092988;28;20020;-38
2022/06/07 07:31:59;;;;;;;2.92;2.10;;;;;;;25.44;47.63;93479.16;5093232;28;20127;-37
2022/06/07 07:34:25;;;;;;;5.72;2.72;;;;;;;25.17;46.56;93461.75;5093092;28;20039;-38
2022/06/07 07:36:53;;;;;;;4.70;2.30;;;;;;;24.71;46.47;93480.31;5092888;28;20024;-37
2022/06/07 07:39:19;;;;;;;5.05;2.35;;;;;;;24.84;48.21;93476.63;5092753;28;20024;-37
2022/06/07 07:41:46;;;;;;;3.05;2.75;;;;;;;25.48;47.70;93470.81;5092709;28;20104;-37
2022/06/07 07:44:13;;;;;;;3.03;2.30;;;;;;;25.96;45.16;93468.38;5092876;28;20020;-39
2022/06/07 07:46:40;;;;;;;9.65;5.90;;;;;;;25.52;44.82;93467.41;5092682;28;20504;-38
2022/06/07 07:49:07;;;;;;;4.22;3.88;;;;;;;25.11;44.56;93473.53;5092917;28;20074;-37
2022/06/07 07:51:35;;;;;;;4.20;3.83;;;;;;;24.69;46.02;93471.75;5092526;28;20048;-40
2022/06/07 07:54:02;;;;;;;3.88;3.47;;;;;;;24.48;48.53;93470.16;5092535;28;20047;-40
2022/06/07 07:56:28;;;;;;;34.90;11.27;;;;;;;24.34;50.35;93466.75;5092720;28;20032;-37
2022/06/07 07:58:55;;;;;;;23.25;20.95;;;;;;;24.59;48.75;93466.41;5091571;28;20028;-38
2022/06/07 08:01:22;;;;;;;7.28;6.68;;;;;;;24.52;50.10;93469.59;5091151;28;20020;-37
2022/06/07 08:03:48;;;;;;;5.20;3.03;;;;;;;24.41;50.10;93464.88;5092347;28;20622;-38
2022/06/07 08:06:18;;;;;;;3.72;3.42;;;;;;;24.55;50.60;93462.69;5092225;28;20071;-40
2022/06/07 08:08:49;;;;;;;3.00;2.70;;;;;;;25.94;48.39;93460.56;5093093;28;20023;-41
2022/06/07 08:11:16;;;;;;;2.30;2.10;;;;;;;27.35;45.73;93459.09;5112901;28;20046;-38
2022/06/07 08:13:44;;;;;;;3.10;2.05;;;;;;;27.92;40.84;93455.91;5112146;28;20019;-38
2022/06/07 08:16:10;;;;;;;;;;;;;;;27.86;41.08;93450.03;5112936;28;20048;-38
2022/06/07 08:18:37;;;;;;;2.22;2.03;;;;;;;27.44;43.03;93460.84;5112446;28;20337;-38
2022/06/07 08:21:05;;;;;;;2.95;2.33;;;;;;;26.95;43.49;93450.72;5111793;28;20099;-37
2022/06/07 08:23:32;;;;;;;3.50;2.10;;;;;;;26.32;42.84;93449.91;5111606;28;20030;-37
2022/06/07 08:25:59;;;;;;;2.45;2.20;;;;;;;25.56;45.42;93444.94;5112656;28;20058;-38
2022/06/07 08:28:25;;;;;;;2.70;2.45;;;;;;;25.10;47.03;93443.13;5111259;28;20032;-37
2022/06/07 08:30:51;;;;;;;2.08;1.98;;;;;;;25.01;47.19;93444.88;5112557;28;20038;-37
2022/06/07 08:38:49;;;;;;;2.75;2.10;;;;;;;24.12;48.95;93442.47;5112441;28;20499;-41
2022/06/07 08:41:44;;;;;;;3.38;2.60;;;;;;;23.79;47.96;93448.75;5111957;28;20061;-40
2022/06/07 08:44:34;;;;;;;4.82;2.40;;;;;;;23.59;50.03;93445.00;5109058;28;20039;-39
2022/06/07 08:47:04;;;;;;;3.72;2.70;;;;;;;23.40;50.53;93440.63;5112218;28;20092;-40
2022/06/07 08:49:29;;;;;;;4.55;2.60;;;;;;;23.49;52.61;93442.47;5111868;28;20423;-40
2022/06/07 08:52:08;;;;;;;3.40;2.20;;;;;;;23.49;51.14;93441.72;5112005;28;20023;-39
2022/06/07 08:54:37;;;;;;;2.92;2.30;;;;;;;23.43;50.84;93435.81;5110821;28;20077;-39
2022/06/07 08:57:24;;;;;;;4.28;2.42;;;;;;;23.32;50.39;93435.31;5111877;28;20032;-40
2022/06/07 08:59:55;;;;;;;6.90;2.40;;;;;;;23.22;50.74;93434.09;5111986;28;20034;-39
2022/06/07 09:02:49;;;;;;;5.97;2.75;;;;;;;23.44;52.63;93432.34;5110376;28;20484;-39
2022/06/07 09:05:16;;;;;;;3.55;2.55;;;;;;;24.35;50.84;93431.50;5108492;28;20115;-40
2022/06/07 09:07:44;;;;;;;2.42;2.22;;;;;;;24.41;49.99;93420.47;5091385;28;20174;-40
2022/06/07 09:13:07;;;;;;;4.43;2.10;;;;;;;25.85;44.73;93416.38;5095491;28;20428;-40
2022/06/07 09:15:35;;;;;;;5.07;2.03;;;;;;;25.63;45.88;93409.88;5111165;28;20047;-39
2022/06/07 09:18:04;;;;;;;3.20;2.13;;;;;;;26.22;46.28;93410.66;5111326;28;20118;-40
2022/06/07 09:20:35;;;;;;;4.93;1.88;;;;;;;27.36;41.89;93410.25;5111519;28;20031;-40
2022/06/07 09:23:05;;;;;;;3.95;1.40;;;;;;;27.85;40.48;93412.44;5111488;28;20097;-39
2022/06/07 09:25:35;;;;;;;4.72;1.73;;;;;;;27.92;40.23;93404.81;5109738;28;20037;-40
2022/06/07 09:28:02;;;;;;;3.40;1.77;;;;;;;27.65;40.04;93411.84;5111076;28;20035;-39
2022/06/07 09:30:34;;;;;;;1.65;1.55;;;;;;;27.68;39.00;93404.81;5111387;28;20110;-40
2022/06/07 09:33:10;;;;;;;6.43;1.70;;;;;;;27.75;38.53;93398.69;5111089;28;20066;-40
2022/06/07 09:35:39;;;;;;;3.53;1.60;;;;;;;27.64;38.61;93399.03;5111369;28;20016;-41
2022/06/07 09:38:16;;;;;;;3.95;1.58;;;;;;;27.63;39.04;93391.94;5110888;28;20488;-40
2022/06/07 09:40:53;;;;;;;4.22;1.50;;;;;;;28.47;37.11;93382.25;5110033;28;20473;-40
2022/06/07 09:43:20;;;;;;;2.20;2.00;;;;;;;28.66;36.59;93386.31;5111266;28;20027;-42
2022/06/07 09:45:55;;;;;;;3.33;1.90;;;;;;;30.21;33.90;93387.81;5111040;28;20030;-38
2022/06/07 09:48:35;;;;;;;3.45;1.80;;;;;;;30.48;34.28;93378.38;5109934;28;20031;-38
2022/06/07 09:51:06;;;;;;;2.65;2.00;;;;;;;29.36;33.98;93387.34;5110876;28;20023;-38
2022/06/07 09:53:41;;;;;;;5.03;1.80;;;;;;;28.75;36.38;93382.28;5111049;28;20083;-38
2022/06/07 09:56:20;;;;;;;4.28;1.98;;;;;;;27.97;36.89;93381.59;5110755;28;20101;-38
2022/06/07 09:59:24;;;;;;;2.13;2.03;;;;;;;27.31;36.62;93382.41;5110708;28;20061;-40
2022/06/07 10:02:09;;;;;;;2.60;2.10;;;;;;;27.94;37.01;93387.88;5104891;28;20511;-40
2022/06/07 10:04:53;;;;;;;4.50;3.35;;;;;;;28.22;37.03;93380.88;5090184;28;20020;-38
2022/06/07 10:07:43;;;;;;;4.20;2.22;;;;;;;29.33;35.92;93372.34;5090611;28;20094;-38
2022/06/07 10:10:29;;;;;;;2.00;1.75;;;;;;;30.69;33.18;93368.06;5090319;28;20032;-38
2022/06/07 10:13:05;;;;;;;2.72;1.77;;;;;;;32.16;33.17;93365.34;5093131;28;20443;-38
2022/06/07 10:15:47;;;;;;;3.08;1.50;;;;;;;33.13;30.69;93357.84;5109304;28;20035;-38
2022/06/07 10:18:51;;;;;;;4.38;2.22;;;;;;;33.78;28.26;93359.03;5109385;28;20545;-39
2022/06/07 10:21:20;;;;;;;4.10;1.70;;;;;;;32.52;29.41;93353.66;5094141;28;20050;-39
2022/06/07 10:24:21;;;;;;;4.45;1.70;;;;;;;31.33;31.47;93346.34;5109497;28;20019;-38
2022/06/07 10:26:59;;;;;;;227.40;203.30;;;;;;;30.81;33.08;93348.34;5104621;28;20051;-38
2022/06/07 10:29:55;;;;;;;42.38;38.00;;;;;;;31.08;32.71;93347.38;5110658;28;20034;-38
2022/06/07 10:32:31;;;;;;;3.78;3.22;;;;;;;32.55;28.90;93346.53;5110709;28;20051;-38
2022/06/07 10:35:17;;;;;;;3.67;2.45;;;;;;;33.63;25.98;93340.31;5109520;28;20460;-39
2022/06/07 10:37:52;;;;;;;4.15;3.85;;;;;;;32.70;28.10;93342.38;5109510;28;20423;-38
2022/06/07 10:40:34;;;;;;;3.22;2.75;;;;;;;32.00;28.58;93336.63;5109106;28;20031;-38
2022/06/07 10:43:03;;;;;;;2.00;1.90;;;;;;;31.06;30.39;93338.78;5110693;28;20051;-39
2022/06/07 10:45:33;;;;;;;1.90;1.80;;;;;;;31.11;33.03;93334.59;5109027;28;20031;-38
2022/06/07 10:48:15;;;;;;;2.67;1.98;;;;;;;31.53;29.83;93334.53;5110276;28;20126;-38
2022/06/07 10:51:06;;;;;;;5.47;4.90;;;;;;;31.13;30.67;93331.78;5110757;28;20035;-38
2022/06/07 10:53:39;;;;;;;4.20;1.88;;;;;;;31.26;29.35;93329.81;5113266;28;20023;-38
2022/06/07 10:56:28;;;;;;;2.33;2.13;;;;;;;31.80;28.53;93324.19;5112840;28;20024;-38
2022/06/07 10:58:55;;;;;;;10.15;6.00;;;;;;;31.95;28.99;93328.69;5100247;28;20036;-38
2022/06/07 11:01:24;;;;;;;4.10;2.40;;;;;;;31.45;26.34;93323.00;5093869;28;20036;-38
2022/06/07 11:04:03;;;;;;;2.20;2.00;;;;;;;30.48;28.92;93318.56;5092289;28;20046;-38
2022/06/07 11:09:29;;;;;;;3.90;3.58;;;;;;;29.75;31.38;93304.31;5092426;28;20054;-37
2022/06/07 11:12:25;;;;;;;3.28;3.00;;;;;;;29.03;34.41;93306.97;5093696;28;20032;-38
2022/06/07 11:15:08;;;;;;;2.95;2.00;;;;;;;28.60;33.34;93300.94;5092155;28;20433;-40
2022/06/07 11:17:44;;;;;;;6.00;2.17;;;;;;;28.02;33.56;93300.84;5093271;28;20072;-40
2022/06/07 11:20:23;;;;;;;4.30;2.30;;;;;;;27.60;35.82;93300.38;5092045;28;20493;-40
2022/06/07 11:23:02;;;;;;;13.80;8.30;;;;;;;27.28;33.96;93305.09;5092260;28;20114;-40
2022/06/07 11:25:33;;;;;;;7.55;5.30;;;;;;;27.04;35.17;93301.50;5093041;28;20020;-40
2022/06/07 11:28:06;;;;;;;8.13;2.78;;;;;;;27.11;37.12;93291.09;5093415;28;20032;-40
2022/06/07 11:30:36;;;;;;;3.13;2.50;;;;;;;27.16;36.50;93292.66;5093055;28;20027;-39
2022/06/07 11:33:02;;;;;;;2.13;1.90;;;;;;;27.39;36.32;93291.94;5092922;28;20054;-40
2022/06/07 11:36:05;;;;;;;2.45;2.25;;;;;;;28.07;35.93;93287.50;5093190;28;20028;-40
2022/06/07 11:38:34;;;;;;;2.67;2.00;;;;;;;28.62;34.80;93283.94;5092717;28;20093;-40
2022/06/07 11:41:39;;;;;;;1.67;1.58;;;;;;;29.03;33.98;93283.50;5092842;28;20089;-39
2022/06/07 11:44:10;;;;;;;2.20;2.00;;;;;;;29.06;30.33;93279.31;5091468;28;20028;-40
2022/06/07 11:46:38;;;;;;;2.63;1.90;;;;;;;29.05;30.17;93283.53;5092591;28;20032;-40
2022/06/07 11:49:27;;;;;;;2.83;2.13;;;;;;;28.96;30.21;93288.31;5092653;28;20028;-40
2022/06/07 11:52:11;;;;;;;2.03;1.75;;;;;;;28.81;31.71;93277.28;5092625;28;20024;-40
2022/06/07 11:54:46;;;;;;;2.00;1.90;;;;;;;28.71;30.86;93277.78;5100431;28;20034;-40
2022/06/07 11:57:32;;;;;;;2.40;2.20;;;;;;;28.49;31.68;93280.78;5112938;28;20102;-41
2022/06/07 12:00:19;;;;;;;2.10;2.00;;;;;;;28.30;33.15;93272.47;5112837;28;20057;-41
2022/06/07 12:02:56;;;;;;;2.20;2.00;;;;;;;28.18;33.03;93272.16;5112700;28;20591;-40
2022/06/07 12:05:47;;;;;;;1.85;1.75;;;;;;;28.24;31.54;93267.34;5112675;28;20020;-40
2022/06/07 12:08:19;;;;;;;2.05;1.90;;;;;;;28.04;27.69;93268.97;5111808;28;20039;-39
2022/06/07 12:11:20;;;;;;;6.75;2.33;;;;;;;27.78;31.73;93260.44;5111442;28;20031;-40
2022/06/07 12:13:49;;;;;;;2.35;1.90;;;;;;;27.70;33.05;93265.88;5109770;28;20050;-39
2022/06/07 12:16:30;;;;;;;2.47;2.25;;;;;;;27.60;30.87;93259.94;5112273;28;20070;-40